Time;durP1;ratioP1;P1;durP2;ratioP2;P2;SDS_P1;SDS_P2;PMS_P1;PMS_P2;Temp;Humidity;BMP_temperature;BMP_pressure;BME280_temperature;BME280_humidity;BME280_pressure;Samples;Min_cycle;Max_cycle;Signal;HPM_P1;HPM_P2
2021/10/05 04:15:18;;;;;;;;;;;;;;;3.68;100.00;99166.75;4943259;28;20009;-80
2021/10/05 04:17:44;;;;;;;;;;;;;;;3.62;100.00;99162.56;4946675;29;20349;-79
2021/10/05 04:20:09;;;;;;;;;;;;;;;3.59;100.00;99161.75;4947048;28;20301;-79
2021/10/05 04:22:34;;;;;;;;;;;;;;;3.47;100.00;99159.44;4945447;29;19919;-80
2021/10/05 04:25:00;;;;;;;;;;;;;;;3.41;100.00;99156.03;4946913;28;19925;-79
2021/10/05 04:27:25;;;;;;;;;;;;;;;3.30;100.00;99155.44;4944898;28;19926;-81
2021/10/05 04:29:50;;;;;;;;;;;;;;;3.17;100.00;99159.25;4946440;29;20068;-80
2021/10/05 04:32:16;;;;;;;;;;;;;;;3.13;100.00;99153.22;4945994;29;20001;-80
2021/10/05 04:34:43;;;;;;;;;;;;;;;3.09;100.00;99154.19;4946326;29;19930;-79
2021/10/05 04:37:08;;;;;;;;;;;;;;;3.07;100.00;99150.75;4946880;28;19922;-79
2021/10/05 04:39:33;;;;;;;;;;;;;;;2.99;100.00;99158.75;4946503;28;20389;-79
2021/10/05 04:41:59;;;;;;;;;;;;;;;2.95;100.00;99161.47;4944634;29;19919;-80
2021/10/05 04:44:24;;;;;;;;;;;;;;;2.83;100.00;99152.16;4946148;29;19981;-79
2021/10/05 04:46:49;;;;;;;;;;;;;;;2.76;100.00;99132.22;4946728;28;20017;-78
2021/10/05 04:49:15;;;;;;;;;;;;;;;2.81;100.00;99135.59;4945035;29;19919;-78
2021/10/05 04:51:40;;;;;;;;;;;;;;;2.72;100.00;99142.75;4945650;28;19922;-79
2021/10/05 04:54:05;;;;;;;;;;;;;;;2.67;100.00;99139.38;4946085;28;19919;-80
2021/10/05 04:56:30;;;;;;;;;;;;;;;2.67;100.00;99134.16;4945594;29;20381;-79
2021/10/05 04:58:56;;;;;;;;;;;;;;;2.64;100.00;99134.22;4944570;29;19919;-79
2021/10/05 05:01:21;;;;;;;;;;;;;;;2.63;100.00;99142.09;4946195;28;19973;-79
2021/10/05 05:03:46;;;;;;;;;;;;;;;2.66;100.00;99136.78;4945988;28;19923;-80
2021/10/05 05:06:11;;;;;;;;;;;;;;;2.62;100.00;99141.25;4945095;29;19958;-81
2021/10/05 05:08:37;;;;;;;;;;;;;;;2.59;100.00;99132.59;4945911;28;19919;-79
2021/10/05 05:11:02;;;;;;;;;;;;;;;2.71;100.00;99141.06;4946218;28;19922;-79
2021/10/05 05:13:27;;;;;;;;;;;;;;;2.95;100.00;99138.78;4948533;28;19938;-80
2021/10/05 05:15:53;;;;;;;;;;;;;;;2.89;100.00;99133.69;4964634;28;19922;-79
2021/10/05 05:18:18;;;;;;;;;;;;;;;2.84;100.00;99131.19;4964800;28;19922;-79
2021/10/05 05:20:43;;;;;;;;;;;;;;;2.81;100.00;99131.25;4965008;28;20025;-79
2021/10/05 05:23:08;;;;;;;;;;;;;;;2.71;100.00;99121.84;4964310;28;19933;-79
2021/10/05 05:25:34;;;;;;;;;;;;;;;2.64;100.00;99118.50;4964798;28;20374;-79
2021/10/05 05:27:59;;;;;;;;;;;;;;;2.63;100.00;99111.59;4963274;28;19926;-79
2021/10/05 05:30:25;;;;;;;;;;;;;;;2.56;100.00;99114.34;4964405;28;20366;-80
2021/10/05 05:32:50;;;;;;;;;;;;;;;2.59;100.00;99115.16;4964476;28;19925;-80
2021/10/05 05:35:15;;;;;;;;;;;;;;;2.53;100.00;99108.28;4964790;28;19930;-79
2021/10/05 05:37:40;;;;;;;;;;;;;;;2.45;100.00;99112.81;4964267;28;19973;-79
2021/10/05 05:40:06;;;;;;;;;;;;;;;2.42;100.00;99104.16;4964116;28;19918;-79
2021/10/05 05:42:31;;;;;;;;;;;;;;;2.42;100.00;99109.41;4963112;28;19980;-80
2021/10/05 05:44:57;;;;;;;;;;;;;;;2.30;100.00;99106.16;4963414;28;19918;-79
2021/10/05 05:47:22;;;;;;;;;;;;;;;2.37;100.00;99109.50;4964193;28;19958;-79
2021/10/05 05:49:47;;;;;;;;;;;;;;;2.31;100.00;99104.38;4964368;28;20251;-80
2021/10/05 05:52:12;;;;;;;;;;;;;;;2.38;100.00;99099.88;4964567;28;19972;-79
2021/10/05 05:54:38;;;;;;;;;;;;;;;2.34;100.00;99096.47;4964327;28;20340;-79
2021/10/05 05:57:03;;;;;;;;;;;;;;;2.39;100.00;99096.38;4962533;28;19910;-79
2021/10/05 05:59:29;;;;;;;;;;;;;;;2.40;100.00;99082.44;4963902;28;20390;-78
2021/10/05 06:01:54;;;;;;;;;;;;;;;2.36;100.00;99082.50;4964351;28;19925;-80
2021/10/05 06:04:19;;;;;;;;;;;;;;;2.34;100.00;99078.19;4964310;28;19923;-79
2021/10/05 06:06:44;;;;;;;;;;;;;;;2.31;100.00;99080.84;4963896;28;20333;-78
2021/10/05 06:09:10;;;;;;;;;;;;;;;2.30;100.00;99082.63;4963804;28;19922;-80
2021/10/05 06:11:39;;;;;;;;;;;;;;;2.25;100.00;99083.59;4964138;28;20424;-79
2021/10/05 06:14:05;;;;;;;;;;;;;;;2.26;100.00;99085.31;4962244;28;19937;-80
2021/10/05 06:16:30;;;;;;;;;;;;;;;2.15;100.00;99073.34;4963649;28;20013;-80
2021/10/05 06:18:56;;;;;;;;;;;;;;;2.15;100.00;99062.88;4962155;28;19918;-80
2021/10/05 06:21:21;;;;;;;;;;;;;;;2.20;100.00;99064.53;4970016;28;19969;-80
2021/10/05 06:23:46;;;;;;;;;;;;;;;2.13;100.00;99055.97;4963512;28;19918;-79
2021/10/05 06:26:12;;;;;;;;;;;;;;;2.14;100.00;99061.16;4963674;28;19914;-80
2021/10/05 06:28:37;;;;;;;;;;;;;;;2.09;100.00;99054.28;4962711;28;20284;-80
2021/10/05 06:31:03;;;;;;;;;;;;;;;2.05;100.00;99061.31;4963697;28;19923;-80
2021/10/05 06:33:28;;;;;;;;;;;;;;;1.99;100.00;99070.16;4963187;28;19922;-80
2021/10/05 06:35:54;;;;;;;;;;;;;;;2.08;100.00;99069.09;4962553;28;19918;-80
2021/10/05 06:38:19;;;;;;;;;;;;;;;2.03;100.00;99078.81;4963834;28;19922;-80
2021/10/05 06:40:45;;;;;;;;;;;;;;;1.97;100.00;99073.69;4963497;28;20270;-80
2021/10/05 06:43:10;;;;;;;;;;;;;;;1.99;99.80;99080.63;4961938;28;20042;-81
2021/10/05 06:45:36;;;;;;;;;;;;;;;1.94;99.64;99078.97;4963362;28;19914;-79
2021/10/05 08:01:50;;;;;;;;;;;;;;;2.77;95.36;99026.69;5249825;23;20769;-83
2021/10/05 08:04:15;;;;;;;;;;;;;;;8.88;100.00;99009.44;4966298;28;19958;-83
2021/10/05 08:06:40;;;;;;;;;;;;;;;7.57;85.42;99015.34;4964514;28;19973;-82
2021/10/05 08:09:06;;;;;;;;;;;;;;;9.87;89.61;99001.84;4965148;28;19952;-82
2021/10/05 08:11:31;;;;;;;;;;;;;;;6.77;91.25;99012.53;4963768;28;20353;-82
2021/10/05 08:13:56;;;;;;;;;;;;;;;5.35;95.44;99012.41;4963651;28;19962;-82
2021/10/05 08:16:30;;;;;;;;;;;;;;;4.81;97.50;98999.25;4963337;28;19930;-81
2021/10/05 08:18:55;;;;;;;;;;;;;;;4.59;96.59;99000.84;4965187;28;19972;-82
2021/10/05 08:21:20;;;;;;;;;;;;;;;4.42;95.87;99012.72;4965898;28;20398;-80
2021/10/05 08:23:46;;;;;;;;;;;;;;;4.30;95.45;99005.19;4966439;28;19921;-81
2021/10/05 08:26:11;;;;;;;;;;;;;;;4.24;95.24;99006.22;4963894;28;19918;-80
2021/10/05 08:28:36;;;;;;;;;;;;;;;4.22;95.21;98999.31;4965819;28;19927;-80
2021/10/05 08:31:01;;;;;;;;;;;;;;;4.20;95.02;99002.00;4964505;28;19925;-81
2021/10/05 08:33:27;;;;;;;;;;;;;;;4.21;95.14;99003.69;4963825;28;19918;-80
2021/10/05 08:35:52;;;;;;;;;;;;;;;4.08;95.30;99003.19;4963862;28;19930;-81
2021/10/05 08:38:17;;;;;;;;;;;;;;;4.17;95.43;98991.59;4964595;28;20358;-81
2021/10/05 08:40:42;;;;;;;;;;;;;;;4.13;95.24;98985.59;4963714;28;19977;-80
2021/10/05 08:43:08;;;;;;;;;;;;;;;4.10;95.23;98977.81;4964630;28;20469;-80
2021/10/05 08:45:33;;;;;;;;;;;;;;;4.11;95.37;98982.13;4962174;28;20456;-80
2021/10/05 08:47:58;;;;;;;;;;;;;;;4.12;95.31;98976.00;4964575;28;19937;-81
2021/10/05 08:50:26;;;;;;;;;;;;;;;4.12;95.26;98981.22;4964316;28;20537;-80
2021/10/05 08:52:52;;;;;;;;;;;;;;;4.16;95.50;98977.63;4965220;28;19950;-81
2021/10/05 08:55:18;;;;;;;;;;;;;;;4.13;95.27;98975.09;4963656;28;19922;-81
2021/10/05 08:57:43;;;;;;;;;;;;;;;4.16;95.00;98968.88;4963769;28;19925;-80
2021/10/05 09:00:09;;;;;;;;;;;;;;;4.16;94.99;98967.16;4962025;28;20389;-81
2021/10/05 09:02:45;;;;;;;;;;;;;;;4.19;94.87;98964.41;4962989;28;20270;-80
2021/10/05 09:05:12;;;;;;;;;;;;;;;4.22;94.99;98962.63;4964454;28;19922;-81
2021/10/05 09:07:43;;;;;;;;;;;;;;;4.23;94.66;98953.81;4962527;28;19928;-80
2021/10/05 09:10:08;;;;;;;;;;;;;;;4.18;94.93;98949.59;4963591;28;19929;-81
2021/10/05 09:12:33;;;;;;;;;;;;;;;4.23;95.07;98954.69;4962497;28;19930;-81
2021/10/05 09:14:59;;;;;;;;;;;;;;;4.23;94.74;98944.22;4964549;28;19922;-81
2021/10/05 09:17:26;;;;;;;;;;;;;;;4.25;94.68;98952.03;4963609;28;20020;-81
2021/10/05 09:19:52;;;;;;;;;;;;;;;4.29;94.93;98945.78;4965007;28;19922;-81
2021/10/05 09:22:19;;;;;;;;;;;;;;;4.27;94.49;98943.19;4962365;28;20278;-80
2021/10/05 09:24:46;;;;;;;;;;;;;;;4.31;94.89;98946.59;4964769;28;20384;-81
2021/10/05 09:27:11;;;;;;;;;;;;;;;4.30;94.88;98939.63;4963374;28;20278;-81
2021/10/05 09:29:37;;;;;;;;;;;;;;;4.26;94.61;98932.75;4963572;28;19938;-82
2021/10/05 09:32:07;;;;;;;;;;;;;;;4.30;94.88;98931.75;4963161;28;19933;-80
2021/10/05 09:34:38;;;;;;;;;;;;;;;4.33;94.49;98937.75;4964594;28;19933;-81
2021/10/05 09:37:04;;;;;;;;;;;;;;;4.32;94.41;98925.56;4964606;28;19922;-81
2021/10/05 09:39:41;;;;;;;;;;;;;;;4.37;94.76;98925.41;4963809;28;19926;-81
2021/10/05 09:42:06;;;;;;;;;;;;;;;4.33;94.48;98936.91;4964102;28;20394;-81
2021/10/05 09:44:31;;;;;;;;;;;;;;;4.37;94.67;98922.78;4964051;28;19968;-81
2021/10/05 09:46:57;;;;;;;;;;;;;;;4.32;94.32;98919.44;4962906;28;19922;-81
2021/10/05 09:49:24;;;;;;;;;;;;;;;4.39;94.38;98914.88;4963244;28;19922;-81
2021/10/05 09:51:56;;;;;;;;;;;;;;;4.39;94.07;98915.75;4962905;28;19918;-81
2021/10/05 09:54:22;;;;;;;;;;;;;;;4.34;93.86;98915.00;4960675;28;19923;-81
2021/10/05 09:56:49;;;;;;;;;;;;;;;4.39;94.47;98915.75;4964176;28;20285;-82
2021/10/05 09:59:14;;;;;;;;;;;;;;;4.45;94.73;98920.81;4963237;28;19963;-81
2021/10/05 10:01:40;;;;;;;;;;;;;;;4.43;94.48;98914.72;4960662;28;20000;-81
2021/10/05 10:04:06;;;;;;;;;;;;;;;4.43;94.37;98919.97;4962679;28;20392;-81
2021/10/05 10:06:31;;;;;;;;;;;;;;;4.48;94.70;98910.22;4961095;28;19922;-81
2021/10/05 10:08:57;;;;;;;;;;;;;;;4.50;96.31;98924.13;4962219;28;20391;-86
2021/10/05 10:11:24;;;;;;;;;;;;;;;5.28;98.34;98899.66;4962398;28;19925;-81
2021/10/05 10:13:50;;;;;;;;;;;;;;;4.86;96.85;98913.31;4956139;28;19969;-81
2021/10/05 10:16:16;;;;;;;;;;;;;;;4.75;96.05;98906.72;4963193;28;19926;-81
2021/10/05 10:18:51;;;;;;;;;;;;;;;4.71;95.68;98900.72;4963010;28;19926;-81
2021/10/05 10:21:23;;;;;;;;;;;;;;;4.60;95.38;98901.06;4963286;28;19977;-81
2021/10/05 10:24:00;;;;;;;;;;;;;;;4.58;94.83;98900.28;4961239;28;20120;-81
2021/10/05 10:26:25;;;;;;;;;;;;;;;4.61;94.62;98897.56;4962008;28;19926;-82
2021/10/05 10:28:57;;;;;;;;;;;;;;;4.64;94.79;98907.06;4962627;28;19923;-81
2021/10/05 10:31:28;;;;;;;;;;;;;;;4.67;94.72;98901.72;4962652;28;20021;-81
2021/10/05 10:33:54;;;;;;;;;;;;;;;4.66;94.36;98900.00;4963081;28;19922;-81
2021/10/05 10:36:33;;;;;;;;;;;;;;;4.71;95.01;98892.84;4963863;28;19926;-82
2021/10/05 10:39:05;;;;;;;;;;;;;;;4.61;95.10;98888.81;4958877;28;19922;-81
2021/10/05 10:41:30;;;;;;;;;;;;;;;4.69;94.80;98884.16;4962949;28;19927;-82
2021/10/05 10:44:04;;;;;;;;;;;;;;;4.67;94.73;98881.59;4962800;28;19929;-81
2021/10/05 10:46:36;;;;;;;;;;;;;;;4.68;94.63;98882.47;4961880;28;19929;-82
2021/10/05 10:49:03;;;;;;;;;;;;;;;4.70;94.54;98880.63;4959512;28;19929;-82
2021/10/05 10:51:28;;;;;;;;;;;;;;;4.73;94.88;98856.91;4962575;28;19928;-81
2021/10/05 10:53:55;;;;;;;;;;;;;;;4.78;95.19;98862.00;4963129;28;20288;-81
2021/10/05 10:56:46;;;;;;;;;;;;;;;4.71;94.89;98861.38;4963540;28;20452;-82
2021/10/05 10:59:13;;;;;;;;;;;;;;;4.76;94.92;98864.69;4959486;28;20385;-81
2021/10/05 11:01:49;;;;;;;;;;;;;;;4.77;95.13;98863.78;4961137;28;19949;-81
2021/10/05 11:04:18;;;;;;;;;;;;;;;4.73;95.62;98851.66;4963084;28;19922;-81
2021/10/05 11:06:45;;;;;;;;;;;;;;;4.80;95.25;98840.03;4965489;28;19930;-82
2021/10/05 11:09:10;;;;;;;;;;;;;;;4.79;94.58;98843.59;4966267;28;19930;-81
2021/10/05 11:11:39;;;;;;;;;;;;;;;4.74;94.33;98850.78;4965652;28;19918;-81
2021/10/05 11:14:07;;;;;;;;;;;;;;;4.79;94.96;98840.13;4965836;28;19922;-82
2021/10/05 11:16:34;;;;;;;;;;;;;;;4.80;94.51;98834.78;4965547;28;19980;-81
2021/10/05 11:19:17;;;;;;;;;;;;;;;4.80;94.61;98829.53;4965155;28;20399;-81
2021/10/05 11:21:44;;;;;;;;;;;;;;;4.79;94.92;98822.59;4966178;28;19930;-81
2021/10/05 11:24:12;;;;;;;;;;;;;;;4.76;94.75;98832.34;4966115;28;19982;-82
2021/10/05 11:26:41;;;;;;;;;;;;;;;4.83;94.62;98832.06;4966837;28;19918;-81
2021/10/05 11:29:07;;;;;;;;;;;;;;;4.84;94.76;98819.81;4965487;28;19919;-82
2021/10/05 11:31:45;;;;;;;;;;;;;;;4.82;94.52;98821.59;4965271;28;19920;-81
2021/10/05 11:34:11;;;;;;;;;;;;;;;4.91;95.04;98829.16;4965024;28;19949;-81
2021/10/05 11:36:36;;;;;;;;;;;;;;;4.89;94.95;98818.72;4966350;28;20366;-82
2021/10/05 11:39:03;;;;;;;;;;;;;;;4.84;94.57;98815.41;4966882;28;19974;-81
2021/10/05 11:41:39;;;;;;;;;;;;;;;4.90;94.68;98825.69;4966774;28;19965;-81
2021/10/05 11:44:20;;;;;;;;;;;;;;;4.89;94.89;98818.72;4964919;28;19926;-82
2021/10/05 11:46:56;;;;;;;;;;;;;;;4.82;94.51;98811.97;4964633;28;19928;-81
2021/10/05 11:49:23;;;;;;;;;;;;;;;4.85;94.40;98818.88;4965802;28;19989;-81
2021/10/05 11:51:51;;;;;;;;;;;;;;;4.81;94.91;98810.25;4964116;28;19922;-81
2021/10/05 11:54:23;;;;;;;;;;;;;;;4.87;95.04;98814.44;4964457;28;19923;-81
2021/10/05 11:56:48;;;;;;;;;;;;;;;4.88;95.47;98819.66;4965945;28;20363;-81
2021/10/05 11:59:24;;;;;;;;;;;;;;;4.93;95.24;98816.00;4965392;28;20020;-81
2021/10/05 12:01:49;;;;;;;;;;;;;;;4.89;94.71;98812.63;4964836;28;20021;-81
2021/10/05 12:04:15;;;;;;;;;;;;;;;4.91;94.81;98806.41;4963449;28;19922;-81
2021/10/05 12:06:41;;;;;;;;;;;;;;;4.91;94.92;98809.03;4964710;28;19925;-81
2021/10/05 12:09:08;;;;;;;;;;;;;;;4.91;95.04;98795.03;4965518;28;19949;-81
2021/10/05 12:11:34;;;;;;;;;;;;;;;4.93;94.87;98793.25;4963602;28;20310;-81
2021/10/05 12:14:01;;;;;;;;;;;;;;;4.94;95.30;98794.09;4965156;28;19922;-82
2021/10/05 12:16:26;;;;;;;;;;;;;;;4.90;95.07;98785.47;4962771;28;20521;-81
2021/10/05 12:18:55;;;;;;;;;;;;;;;4.91;95.14;98780.16;4964591;28;19930;-82
2021/10/05 12:21:20;;;;;;;;;;;;;;;4.89;94.66;98786.38;4964052;28;19985;-81
2021/10/05 12:23:53;;;;;;;;;;;;;;;4.93;95.21;98776.59;4964056;28;19926;-82
2021/10/05 12:26:18;;;;;;;;;;;;;;;4.98;95.32;98782.53;4966630;28;19978;-81
2021/10/05 12:29:20;;;;;;;;;;;;;;;5.03;95.42;98776.22;4963541;28;19922;-81
2021/10/05 12:31:53;;;;;;;;;;;;;;;4.98;95.48;98769.41;4923433;29;19935;-82
2021/10/05 12:34:18;;;;;;;;;;;;;;;4.97;95.71;98765.09;4958003;28;19941;-81
2021/10/05 12:36:43;;;;;;;;;;;;;;;4.99;95.94;98756.22;4963533;28;20354;-82
2021/10/05 12:39:13;;;;;;;;;;;;;;;5.05;96.09;98756.00;4964199;28;19925;-82
2021/10/05 12:41:39;;;;;;;;;;;;;;;5.01;95.54;98749.19;4965381;28;20021;-82
2021/10/05 12:44:17;;;;;;;;;;;;;;;5.02;95.34;98747.41;4963974;28;20409;-81
2021/10/05 12:46:55;;;;;;;;;;;;;;;4.96;95.01;98743.22;4962597;28;19922;-82
2021/10/05 12:49:21;;;;;;;;;;;;;;;5.39;98.64;98746.03;4964782;28;19922;-82
2021/10/05 12:51:47;;;;;;;;;;;;;;;6.12;100.00;98744.06;4965286;28;19922;-82
2021/10/05 12:54:13;;;;;;;;;;;;;;;6.46;100.00;98740.00;4965898;28;19928;-82
2021/10/05 12:56:38;;;;;;;;;;;;;;;6.67;100.00;98728.56;4963829;28;19968;-82
2021/10/05 12:59:05;;;;;;;;;;;;;;;6.83;100.00;98736.63;4965865;28;19918;-82
2021/10/05 13:01:35;;;;;;;;;;;;;;;6.89;100.00;98736.38;4962538;28;19945;-82
2021/10/05 13:04:01;;;;;;;;;;;;;;;6.94;100.00;98730.91;4962623;28;19966;-82
2021/10/05 13:06:26;;;;;;;;;;;;;;;6.90;100.00;98737.22;4961482;28;19966;-81
2021/10/05 13:08:51;;;;;;;;;;;;;;;6.95;100.00;98727.31;4963114;28;19925;-81
2021/10/05 13:11:17;;;;;;;;;;;;;;;7.15;100.00;98730.81;4964653;28;19930;-81
2021/10/05 13:13:42;;;;;;;;;;;;;;;7.43;100.00;98715.44;4965294;28;19918;-82
2021/10/05 13:16:07;;;;;;;;;;;;;;;7.70;100.00;98715.06;4962641;28;19927;-82
2021/10/05 13:18:33;;;;;;;;;;;;;;;7.88;100.00;98715.09;4964665;28;19914;-82
2021/10/05 13:20:58;;;;;;;;;;;;;;;8.02;100.00;98715.28;4963106;28;19968;-83
2021/10/05 13:23:24;;;;;;;;;;;;;;;8.14;100.00;98711.19;4964118;28;19950;-82
2021/10/05 13:25:49;;;;;;;;;;;;;;;8.25;100.00;98708.88;4963249;28;19933;-83
2021/10/05 13:28:15;;;;;;;;;;;;;;;8.36;100.00;98703.06;4963804;28;19918;-82
2021/10/05 13:30:40;;;;;;;;;;;;;;;8.42;100.00;98702.72;4962480;28;19923;-82
2021/10/05 13:33:05;;;;;;;;;;;;;;;8.48;100.00;98698.94;4964599;28;19918;-82
2021/10/05 13:35:31;;;;;;;;;;;;;;;8.58;100.00;98694.88;4964527;28;20429;-82
2021/10/05 13:37:56;;;;;;;;;;;;;;;8.63;100.00;98702.56;4963756;28;20672;-82
2021/10/05 13:40:23;;;;;;;;;;;;;;;8.70;100.00;98698.69;4961992;28;20036;-82
2021/10/05 13:42:48;;;;;;;;;;;;;;;8.80;100.00;98699.91;4962946;28;19938;-82
2021/10/05 13:45:13;;;;;;;;;;;;;;;8.86;100.00;98709.31;4962703;28;19926;-82
2021/10/05 13:47:38;;;;;;;;;;;;;;;8.89;100.00;98712.63;4964636;28;19937;-82
2021/10/05 13:50:04;;;;;;;;;;;;;;;8.95;100.00;98713.22;4964059;28;19922;-82
2021/10/05 13:52:30;;;;;;;;;;;;;;;9.01;100.00;98712.91;4961560;28;19926;-81
2021/10/05 13:54:55;;;;;;;;;;;;;;;9.03;100.00;98722.47;4964097;28;19966;-82
2021/10/05 13:57:21;;;;;;;;;;;;;;;9.09;100.00;98723.91;4963276;28;19945;-82
2021/10/05 13:59:46;;;;;;;;;;;;;;;9.13;100.00;98730.75;4961333;28;19977;-82
2021/10/05 14:02:11;;;;;;;;;;;;;;;9.21;100.00;98733.00;4961464;28;19925;-82
2021/10/05 14:04:37;;;;;;;;;;;;;;;9.22;100.00;98730.28;4960732;28;19922;-83
2021/10/05 14:07:02;;;;;;;;;;;;;;;9.27;100.00;98735.31;4963626;28;19965;-82
2021/10/05 14:09:27;;;;;;;;;;;;;;;9.29;100.00;98740.50;4964765;28;19958;-82
2021/10/05 14:11:53;;;;;;;;;;;;;;;9.36;100.00;98741.88;4963284;28;19926;-83
2021/10/05 14:14:19;;;;;;;;;;;;;;;9.40;100.00;98748.72;4961301;28;20393;-82
2021/10/05 14:16:45;;;;;;;;;;;;;;;9.45;100.00;98749.31;4958698;28;19922;-81
2021/10/05 14:19:10;;;;;;;;;;;;;;;9.48;100.00;98749.16;4963453;28;19925;-81
2021/10/05 14:21:35;;;;;;;;;;;;;;;9.52;100.00;98740.09;4961890;28;19926;-82
2021/10/05 14:24:01;;;;;;;;;;;;;;;9.57;100.00;98751.28;4960439;28;19954;-81
2021/10/05 14:26:26;;;;;;;;;;;;;;;8.53;100.00;98753.22;4944987;28;19927;-82
2021/10/05 14:28:52;;;;;;;;;;;;;;;7.40;100.00;98752.50;4945575;28;19922;-82
2021/10/05 14:31:17;;;;;;;;;;;;;;;6.83;100.00;98751.56;4944720;28;20385;-82
2021/10/05 14:33:43;;;;;;;;;;;;;;;6.47;100.00;98758.34;4950202;28;19922;-82
2021/10/05 14:36:09;;;;;;;;;;;;;;;6.29;100.00;98762.63;4947266;28;19938;-82
2021/10/05 14:38:34;;;;;;;;;;;;;;;6.11;100.00;98752.84;4945514;29;19927;-81
2021/10/05 14:41:00;;;;;;;;;;;;;;;5.91;100.00;98757.13;4945268;29;19926;-81
2021/10/05 14:43:25;;;;;;;;;;;;;;;5.81;100.00;98754.00;4944554;29;20302;-82
2021/10/05 14:45:50;;;;;;;;;;;;;;;5.73;100.00;98756.09;4943392;29;19979;-82
2021/10/05 14:48:15;;;;;;;;;;;;;;;5.63;100.00;98752.09;4944021;28;19926;-82
2021/10/05 14:50:41;;;;;;;;;;;;;;;5.57;100.00;98758.47;4944774;29;19923;-82
2021/10/05 14:53:06;;;;;;;;;;;;;;;5.56;100.00;98750.63;4944616;29;19948;-82
2021/10/05 14:55:32;;;;;;;;;;;;;;;5.50;100.00;98750.88;4944148;29;19925;-82
2021/10/05 14:57:57;;;;;;;;;;;;;;;5.50;100.00;98746.47;4943268;29;19919;-82
2021/10/05 15:00:22;;;;;;;;;;;;;;;5.50;100.00;98751.72;4942526;29;19923;-82
2021/10/05 15:02:48;;;;;;;;;;;;;;;5.34;100.00;98754.06;4943304;29;20448;-82
2021/10/05 15:05:14;;;;;;;;;;;;;;;5.25;100.00;98750.03;4944899;29;19927;-81
2021/10/05 15:07:40;;;;;;;;;;;;;;;5.25;100.00;98746.56;4944126;28;20275;-82
2021/10/05 15:10:07;;;;;;;;;;;;;;;5.25;100.00;98744.78;4944122;28;19929;-83
2021/10/05 15:12:32;;;;;;;;;;;;;;;5.27;100.00;98735.06;4944730;29;19923;-81
2021/10/05 15:15:01;;;;;;;;;;;;;;;5.22;100.00;98742.28;4944979;29;19934;-82
2021/10/05 15:17:27;;;;;;;;;;;;;;;5.16;100.00;98742.50;4943821;29;20014;-82
2021/10/05 15:19:52;;;;;;;;;;;;;;;5.10;100.00;98750.59;4943678;29;19929;-82
2021/10/05 15:22:17;;;;;;;;;;;;;;;5.08;99.68;98736.69;4943744;29;20441;-82
2021/10/05 15:24:42;;;;;;;;;;;;;;;5.11;99.75;98743.59;4942091;28;19923;-82
2021/10/05 15:27:08;;;;;;;;;;;;;;;5.12;99.14;98734.78;4943414;29;19933;-82
2021/10/05 15:29:33;;;;;;;;;;;;;;;5.07;99.58;98738.47;4942005;29;19919;-82
2021/10/05 15:31:58;;;;;;;;;;;;;;;5.07;99.24;98730.59;4943518;29;19926;-82
2021/10/05 15:34:23;;;;;;;;;;;;;;;4.99;99.48;98740.47;4942968;29;19993;-82
2021/10/05 15:36:49;;;;;;;;;;;;;;;4.87;99.86;98740.97;4942769;29;19935;-82
2021/10/05 15:39:16;;;;;;;;;;;;;;;4.87;99.94;98736.56;4943805;29;19918;-82
2021/10/05 15:41:41;;;;;;;;;;;;;;;4.94;99.58;98738.97;4943895;28;19918;-82
2021/10/05 15:44:06;;;;;;;;;;;;;;;4.95;99.06;98735.44;4943213;29;19918;-82
2021/10/05 15:46:33;;;;;;;;;;;;;;;4.86;98.56;98739.22;4942764;28;19978;-82
2021/10/05 15:48:58;;;;;;;;;;;;;;;4.77;98.93;98743.06;4943564;29;19966;-82
2021/10/05 15:51:33;;;;;;;;;;;;;;;4.76;98.67;98740.50;4945518;28;19922;-82
2021/10/05 15:53:58;;;;;;;;;;;;;;;4.82;98.86;98743.75;4946932;29;19965;-82
2021/10/05 15:56:23;;;;;;;;;;;;;;;4.73;98.76;98733.56;4947390;29;19927;-80
2021/10/05 15:58:48;;;;;;;;;;;;;;;4.87;98.67;98741.81;4946912;29;19919;-80
2021/10/05 16:01:14;;;;;;;;;;;;;;;4.87;98.31;98746.19;4945635;29;20448;-82
2021/10/05 16:03:39;;;;;;;;;;;;;;;4.68;98.46;98753.88;4945049;29;19933;-81
2021/10/05 16:06:04;;;;;;;;;;;;;;;4.70;99.10;98749.41;4947843;29;19919;-81
2021/10/05 16:08:33;;;;;;;;;;;;;;;4.66;99.03;98756.56;4946712;29;20019;-82
2021/10/05 16:10:59;;;;;;;;;;;;;;;4.59;98.52;98751.56;4947949;29;20010;-82
2021/10/05 16:13:24;;;;;;;;;;;;;;;4.56;98.74;98755.13;4945434;29;20013;-81
2021/10/05 16:15:49;;;;;;;;;;;;;;;4.61;98.20;98752.34;4944711;29;20386;-81
2021/10/05 16:18:14;;;;;;;;;;;;;;;4.57;98.01;98758.66;4946848;29;19922;-82
2021/10/05 16:20:39;;;;;;;;;;;;;;;4.60;97.90;98756.75;4946515;29;19919;-82
2021/10/05 16:23:05;;;;;;;;;;;;;;;4.62;97.60;98765.44;4946109;29;19922;-82
2021/10/05 16:25:31;;;;;;;;;;;;;;;4.50;98.09;98764.09;4946985;29;19933;-82
2021/10/05 16:27:56;;;;;;;;;;;;;;;4.50;98.43;98764.09;4946533;28;19941;-82
2021/10/05 16:30:22;;;;;;;;;;;;;;;4.50;97.94;98769.34;4943578;29;20747;-82
2021/10/05 16:32:47;;;;;;;;;;;;;;;4.48;97.98;98771.19;4946553;28;19953;-82
2021/10/05 16:35:12;;;;;;;;;;;;;;;4.46;97.85;98778.22;4946669;29;19930;-81
2021/10/05 16:37:38;;;;;;;;;;;;;;;4.45;97.63;98779.16;4946336;29;19958;-82
2021/10/05 16:40:04;;;;;;;;;;;;;;;4.45;97.73;98789.63;4946094;29;19930;-82
2021/10/05 16:42:30;;;;;;;;;;;;;;;4.27;97.40;98798.94;4946263;29;19926;-82
2021/10/05 16:44:55;;;;;;;;;;;;;;;4.38;97.58;98808.25;4945709;28;20286;-81
2021/10/05 16:47:20;;;;;;;;;;;;;;;4.32;97.27;98819.78;4945761;28;20007;-81
2021/10/05 16:49:46;;;;;;;;;;;;;;;4.48;97.55;98828.88;4946207;29;20021;-81
2021/10/05 16:52:11;;;;;;;;;;;;;;;4.32;97.06;98839.03;4946452;29;19915;-81
2021/10/05 16:54:36;;;;;;;;;;;;;;;4.32;96.46;98846.00;4946103;29;19930;-81
2021/10/05 16:57:04;;;;;;;;;;;;;;;4.29;96.55;98844.38;4945590;29;19926;-82
2021/10/05 16:59:29;;;;;;;;;;;;;;;4.21;95.99;98856.84;4946136;28;19970;-81
2021/10/05 17:01:55;;;;;;;;;;;;;;;4.21;95.73;98858.63;4944266;29;19926;-82
2021/10/05 17:04:20;;;;;;;;;;;;;;;4.25;95.94;98866.34;4945615;29;19919;-82
2021/10/05 17:06:46;;;;;;;;;;;;;;;4.07;96.10;98874.78;4945650;29;19923;-81
2021/10/05 17:09:12;;;;;;;;;;;;;;;4.19;95.35;98879.63;4945955;29;19922;-82
2021/10/05 17:11:38;;;;;;;;;;;;;;;4.11;95.14;98884.28;4945892;28;20343;-82
2021/10/05 17:14:03;;;;;;;;;;;;;;;4.11;95.38;98889.50;4946161;29;19927;-81
2021/10/05 17:16:29;;;;;;;;;;;;;;;4.14;95.12;98897.28;4944649;28;19927;-82
2021/10/05 17:18:54;;;;;;;;;;;;;;;4.11;95.35;98900.84;4945248;29;19941;-81
2021/10/05 17:21:22;;;;;;;;;;;;;;;4.06;94.52;98909.78;4945629;29;19981;-82
2021/10/05 17:23:47;;;;;;;;;;;;;;;3.97;94.40;98916.13;4945759;28;19922;-81
2021/10/05 17:26:12;;;;;;;;;;;;;;;4.03;94.90;98904.63;4945354;29;19947;-81
2021/10/05 17:28:38;;;;;;;;;;;;;;;3.94;95.20;98918.84;4945547;29;19919;-81
2021/10/05 17:31:03;;;;;;;;;;;;;;;3.95;94.99;98915.34;4944361;29;20009;-81
2021/10/05 17:33:28;;;;;;;;;;;;;;;3.84;94.08;98930.53;4945650;29;19965;-81
2021/10/05 17:35:54;;;;;;;;;;;;;;;3.88;94.35;98930.38;4945262;28;19919;-82
2021/10/05 17:38:19;;;;;;;;;;;;;;;3.93;94.97;98932.88;4945063;29;19969;-82
2021/10/05 17:40:44;;;;;;;;;;;;;;;3.87;93.99;98940.91;4945473;29;19925;-81
2021/10/05 17:43:09;;;;;;;;;;;;;;;3.84;93.67;98939.22;4945224;29;19981;-82
2021/10/05 17:45:35;;;;;;;;;;;;;;;3.83;94.48;98948.00;4942640;29;20422;-83
2021/10/05 17:48:00;;;;;;;;;;;;;;;3.82;93.83;98955.00;4946045;29;19922;-82
2021/10/05 17:50:27;;;;;;;;;;;;;;;3.81;93.66;98958.53;4944966;29;19922;-82
2021/10/05 17:52:53;;;;;;;;;;;;;;;3.77;93.70;98954.28;4943763;29;19925;-82
2021/10/05 17:55:18;;;;;;;;;;;;;;;3.79;94.07;98967.34;4943936;29;20294;-81
2021/10/05 17:57:43;;;;;;;;;;;;;;;3.69;93.72;98964.13;4944912;29;19969;-82
2021/10/05 18:00:09;;;;;;;;;;;;;;;3.73;93.89;98965.72;4943433;29;19922;-82
2021/10/05 18:02:35;;;;;;;;;;;;;;;3.77;94.08;98956.03;4945067;29;19986;-81
2021/10/05 18:05:00;;;;;;;;;;;;;;;3.62;93.85;98958.19;4943695;29;20347;-81
2021/10/05 18:07:32;;;;;;;;;;;;;;;3.80;93.78;98967.28;4944675;28;19922;-82
2021/10/05 18:09:57;;;;;;;;;;;;;;;3.76;93.45;98970.88;4944736;29;19919;-82
2021/10/05 18:12:22;;;;;;;;;;;;;;;3.70;93.43;98976.34;4943997;29;19929;-81
2021/10/05 18:14:48;;;;;;;;;;;;;;;3.68;93.59;98972.03;4943221;28;19925;-82
2021/10/05 18:17:14;;;;;;;;;;;;;;;3.62;93.75;98988.75;4942808;29;20009;-82